createdAt,value
2019-03-09T00:02:51.305Z,22.93
2019-03-09T00:05:55.294Z,19.83
2019-03-09T00:08:58.885Z,25.53
2019-03-09T00:12:02.757Z,22.90
2019-03-09T00:15:06.844Z,21.97
2019-03-09T00:18:10.432Z,23.30
2019-03-09T00:21:14.336Z,18.37
2019-03-09T00:24:27.277Z,22.70
2019-03-09T00:27:36.428Z,24.27
2019-03-09T00:30:47.823Z,22.37
2019-03-09T00:33:51.996Z,18.00
2019-03-09T00:36:55.905Z,14.80
2019-03-09T00:39:59.825Z,21.13
2019-03-09T00:43:03.405Z,19.00
2019-03-09T00:46:07.337Z,14.90
2019-03-09T00:49:11.378Z,14.80
2019-03-09T00:52:15.524Z,18.23
2019-03-09T00:55:19.363Z,17.53
2019-03-09T00:58:22.945Z,17.87
2019-03-09T01:01:26.871Z,13.07
2019-03-09T01:04:30.454Z,16.33
2019-03-09T01:07:34.306Z,15.87
2019-03-09T01:10:38.304Z,15.00
2019-03-09T01:13:41.989Z,12.33
2019-03-09T01:16:45.576Z,14.27
2019-03-09T01:19:49.159Z,12.40
2019-03-09T01:22:52.847Z,12.40
2019-03-09T01:25:56.450Z,10.60
2019-03-09T01:29:00.120Z,10.83
2019-03-09T01:32:03.701Z,9.37
2019-03-09T01:35:07.671Z,9.80
2019-03-09T01:38:11.341Z,12.97
2019-03-09T01:41:15.811Z,12.47
2019-03-09T01:44:19.856Z,13.80
2019-03-09T01:47:23.463Z,9.90
2019-03-09T01:50:27.410Z,10.97
2019-03-09T01:53:36.732Z,10.57
2019-03-09T01:56:36.931Z,7.83
2019-03-09T01:59:40.509Z,9.30
2019-03-09T02:02:44.320Z,9.20
2019-03-09T02:05:47.967Z,10.73
2019-03-09T02:08:51.820Z,7.43
2019-03-09T02:11:55.397Z,8.47
2019-03-09T02:14:58.975Z,8.00
2019-03-09T02:18:02.561Z,9.53
2019-03-09T02:21:06.546Z,6.27
2019-03-09T02:24:10.135Z,7.20
2019-03-09T02:27:13.783Z,6.50
2019-03-09T02:30:17.552Z,7.27
2019-03-09T02:33:21.581Z,7.97
2019-03-09T02:36:26.296Z,5.90
2019-03-09T02:39:37.905Z,8.80
2019-03-09T02:42:41.749Z,6.60
2019-03-09T02:45:45.389Z,7.03
2019-03-09T02:48:48.985Z,9.40
2019-03-09T02:51:52.559Z,6.07
2019-03-09T02:54:56.156Z,7.50
2019-03-09T02:58:00.052Z,7.77
2019-03-09T03:01:25.949Z,6.60
2019-03-09T03:04:29.644Z,6.57
2019-03-09T03:07:36.039Z,4.73
2019-03-09T03:10:39.852Z,5.30
2019-03-09T03:13:43.432Z,6.47
2019-03-09T03:16:47.353Z,9.30
2019-03-09T03:19:51.291Z,7.67
2019-03-09T03:22:54.870Z,8.00
2019-03-09T03:25:58.456Z,10.03
2019-03-09T03:29:02.051Z,6.03
2019-03-09T03:32:05.885Z,5.17
2019-03-09T03:35:09.797Z,5.00
2019-03-09T03:38:13.402Z,5.87
2019-03-09T03:41:16.962Z,5.60
2019-03-09T03:44:20.546Z,4.03
2019-03-09T03:47:24.129Z,5.17
2019-03-09T03:50:28.018Z,5.87
2019-03-09T03:53:31.945Z,6.23
2019-03-09T03:56:35.595Z,9.70
2019-03-09T03:59:39.562Z,4.37
2019-03-09T04:02:43.593Z,5.13
2019-03-09T04:05:47.486Z,6.03
2019-03-09T04:08:51.014Z,5.57
2019-03-09T04:11:54.933Z,9.67
2019-03-09T04:14:58.528Z,4.03
2019-03-09T04:18:02.415Z,6.33
2019-03-09T04:21:06.319Z,5.60
2019-03-09T04:24:10.238Z,16.60
2019-03-09T04:27:13.830Z,7.13
2019-03-09T04:30:17.475Z,4.73
2019-03-09T04:33:21.048Z,4.47
2019-03-09T04:36:24.723Z,3.37
2019-03-09T04:39:28.671Z,4.27
2019-03-09T04:42:32.248Z,6.33
2019-03-09T04:45:35.822Z,3.83
2019-03-09T04:48:39.430Z,4.13
2019-03-09T04:51:43.274Z,3.20
2019-03-09T04:54:46.903Z,5.33
2019-03-09T04:57:50.475Z,6.67
2019-03-09T05:00:54.425Z,5.60
2019-03-09T05:04:35.903Z,4.70
2019-03-09T05:07:48.766Z,5.67
2019-03-09T05:10:56.162Z,3.20
2019-03-09T05:14:03.653Z,3.17
2019-03-09T05:17:07.223Z,5.90
2019-03-09T05:20:11.210Z,3.53
2019-03-09T05:23:15.120Z,2.93
2019-03-09T05:26:18.709Z,3.03
2019-03-09T05:29:22.285Z,3.10
2019-03-09T05:32:25.873Z,3.00
2019-03-09T05:35:29.483Z,3.40
2019-03-09T05:38:33.471Z,4.60
2019-03-09T05:41:37.293Z,3.83
2019-03-09T05:44:41.182Z,4.90
2019-03-09T05:47:44.768Z,5.83
2019-03-09T05:50:48.421Z,4.33
2019-03-09T05:53:51.999Z,3.17
2019-03-09T05:56:55.916Z,2.70
2019-03-09T05:59:59.486Z,4.60
2019-03-09T06:03:03.082Z,5.63
2019-03-09T06:06:09.512Z,2.40
2019-03-09T06:09:13.087Z,1.57
2019-03-09T06:12:17.314Z,4.67
2019-03-09T06:15:20.989Z,2.93
2019-03-09T06:18:24.978Z,2.80
2019-03-09T06:21:28.589Z,3.60
2019-03-09T06:24:32.450Z,5.50
2019-03-09T06:27:36.050Z,2.77
2019-03-09T06:30:39.654Z,2.70
2019-03-09T06:33:45.054Z,2.77
2019-03-09T06:37:03.028Z,3.93
2019-03-09T06:40:07.033Z,2.70
2019-03-09T06:43:10.616Z,3.20
2019-03-09T06:46:14.580Z,2.87
2019-03-09T06:49:18.166Z,3.33
2019-03-09T06:52:21.751Z,4.10
2019-03-09T06:55:25.339Z,3.97
2019-03-09T06:58:28.929Z,5.60
2019-03-09T07:01:32.521Z,4.80
2019-03-09T07:04:36.109Z,5.90
2019-03-09T07:07:39.686Z,4.93
2019-03-09T07:10:43.261Z,2.67
2019-03-09T07:13:52.980Z,7.03
2019-03-09T07:16:52.495Z,4.13
2019-03-09T07:19:56.375Z,3.60
2019-03-09T07:23:00.020Z,2.23
2019-03-09T07:26:03.556Z,3.87
2019-03-09T07:29:07.141Z,3.77
2019-03-09T07:32:10.747Z,5.53
2019-03-09T07:35:14.324Z,7.77
2019-03-09T07:38:17.953Z,5.47
2019-03-09T07:41:21.557Z,8.03
2019-03-09T07:44:25.136Z,5.43
2019-03-09T07:47:29.506Z,33.57
2019-03-09T07:50:33.439Z,25.87
2019-03-09T07:53:37.121Z,21.93
2019-03-09T07:56:41.286Z,22.10
2019-03-09T07:59:44.964Z,27.50
2019-03-09T08:02:49.110Z,19.53
2019-03-09T08:05:52.775Z,23.33
2019-03-09T08:08:56.473Z,26.40
2019-03-09T08:12:00.671Z,25.73
2019-03-09T08:15:05.244Z,21.60
2019-03-09T08:18:09.162Z,27.60
2019-03-09T08:21:12.798Z,27.67
2019-03-09T08:24:16.427Z,24.20
2019-03-09T08:27:20.014Z,29.07
2019-03-09T08:30:24.113Z,23.80
2019-03-09T08:33:28.056Z,20.90
2019-03-09T08:36:31.660Z,18.90
2019-03-09T08:39:35.837Z,24.73
2019-03-09T08:42:39.747Z,22.03
2019-03-09T08:45:43.677Z,23.37
2019-03-09T08:48:47.593Z,17.70
2019-03-09T08:51:51.232Z,18.40
2019-03-09T08:54:54.851Z,15.47
2019-03-09T08:58:00.982Z,14.13
2019-03-09T09:01:10.180Z,13.97
2019-03-09T09:04:15.749Z,14.17
2019-03-09T09:07:19.610Z,20.50
2019-03-09T09:10:23.346Z,17.80
2019-03-09T09:13:27.736Z,17.70
2019-03-09T09:16:31.483Z,18.83
2019-03-09T09:19:35.496Z,17.13
2019-03-09T09:22:39.267Z,21.17
2019-03-09T09:25:43.092Z,16.77
2019-03-09T09:28:46.700Z,14.53
2019-03-09T09:31:50.706Z,17.80
2019-03-09T09:34:54.283Z,18.80
2019-03-09T09:37:57.892Z,12.17
2019-03-09T09:41:01.846Z,16.07
2019-03-09T09:44:05.722Z,19.47
2019-03-09T09:47:09.755Z,19.27
2019-03-09T09:50:13.635Z,22.10
2019-03-09T09:53:17.214Z,79.37
2019-03-09T09:56:20.816Z,86.03
2019-03-09T09:59:24.792Z,76.97
2019-03-09T10:02:28.377Z,60.03
2019-03-09T10:05:31.964Z,55.23
2019-03-09T10:08:36.113Z,51.43
2019-03-09T10:11:40.025Z,40.93
2019-03-09T10:14:43.914Z,34.77
2019-03-09T10:17:47.664Z,31.90
2019-03-09T10:20:51.873Z,32.27
2019-03-09T10:23:55.542Z,31.70
2019-03-09T10:26:59.188Z,32.17
2019-03-09T10:30:02.774Z,26.23
2019-03-09T10:33:06.442Z,35.87
2019-03-09T10:36:10.027Z,31.50
2019-03-09T10:39:13.621Z,31.10
2019-03-09T10:42:17.212Z,24.57
2019-03-09T10:45:20.914Z,28.57
2019-03-09T10:48:24.815Z,27.30
2019-03-09T10:51:28.402Z,26.87
2019-03-09T10:54:35.910Z,20.00
2019-03-09T10:57:37.636Z,24.80
2019-03-09T11:00:41.308Z,23.53
2019-03-09T11:03:44.915Z,23.47
2019-03-09T11:06:48.862Z,21.80
2019-03-09T11:09:52.680Z,20.37
2019-03-09T11:12:56.297Z,17.37
2019-03-09T11:15:59.887Z,17.43
2019-03-09T11:19:03.501Z,21.23
2019-03-09T11:22:07.120Z,18.50
2019-03-09T11:25:11.109Z,19.50
2019-03-09T11:28:14.730Z,21.67
2019-03-09T11:31:18.331Z,16.73
2019-03-09T11:34:22.027Z,16.20
2019-03-09T11:37:25.865Z,21.73
2019-03-09T11:40:29.759Z,16.87
2019-03-09T11:43:33.351Z,17.67
2019-03-09T11:46:37.376Z,16.60
2019-03-09T11:49:41.389Z,17.67
2019-03-09T11:52:45.207Z,14.47
2019-03-09T11:55:48.812Z,12.27
2019-03-09T11:58:52.401Z,16.00
2019-03-09T12:01:56.082Z,14.80
2019-03-09T12:05:00.276Z,12.83
2019-03-09T12:08:05.170Z,19.97
2019-03-09T12:11:09.073Z,13.97
2019-03-09T12:14:12.666Z,17.10
2019-03-09T12:17:16.248Z,13.87
2019-03-09T12:20:21.033Z,11.83
2019-03-09T12:23:25.960Z,12.57
2019-03-09T12:26:29.950Z,18.80
2019-03-09T12:29:33.551Z,11.20
2019-03-09T12:32:37.203Z,14.77
2019-03-09T12:35:40.786Z,12.60
2019-03-09T12:38:44.367Z,15.63
2019-03-09T12:41:47.971Z,11.00
2019-03-09T12:44:51.926Z,13.40
2019-03-09T12:47:56.106Z,14.00
2019-03-09T12:51:00.040Z,11.30
2019-03-09T12:54:03.964Z,13.13
2019-03-09T12:57:07.637Z,12.77
2019-03-09T13:00:13.735Z,12.37
2019-03-09T13:03:17.320Z,13.40
2019-03-09T13:06:21.346Z,13.00
2019-03-09T13:09:25.170Z,9.73
2019-03-09T13:12:28.757Z,10.70
2019-03-09T13:15:32.342Z,10.43
2019-03-09T13:18:35.920Z,11.43
2019-03-09T13:21:39.504Z,9.33
2019-03-09T13:24:43.077Z,9.33
2019-03-09T13:27:46.974Z,9.20
2019-03-09T13:30:50.555Z,11.83
2019-03-09T13:33:54.151Z,11.27
2019-03-09T13:36:57.976Z,10.43
2019-03-09T13:40:01.916Z,10.80
2019-03-09T13:43:05.648Z,14.33
2019-03-09T13:46:09.523Z,11.23
2019-03-09T13:49:13.440Z,8.50
2019-03-09T13:52:17.047Z,10.27
2019-03-09T13:55:20.713Z,9.47
2019-03-09T13:58:24.308Z,11.23
2019-03-09T14:01:28.466Z,10.83
2019-03-09T14:04:32.076Z,10.20
2019-03-09T14:07:35.732Z,10.27
2019-03-09T14:10:39.364Z,11.40
2019-03-09T14:13:42.931Z,9.10
2019-03-09T14:16:46.778Z,9.57
2019-03-09T14:19:50.365Z,11.00
2019-03-09T14:22:53.949Z,11.30
2019-03-09T14:25:57.531Z,8.97
2019-03-09T14:29:01.111Z,11.00
2019-03-09T14:32:04.781Z,8.30
2019-03-09T14:35:08.702Z,9.83
2019-03-09T14:38:12.281Z,8.77
2019-03-09T14:41:16.142Z,9.03
2019-03-09T14:44:19.719Z,10.67
2019-03-09T14:47:23.304Z,10.30
2019-03-09T14:50:26.956Z,10.47
2019-03-09T14:53:30.870Z,8.17
2019-03-09T14:56:34.716Z,9.83
2019-03-09T14:59:38.663Z,8.17
2019-03-09T15:02:42.239Z,9.03
2019-03-09T15:05:45.815Z,8.07
2019-03-09T15:08:49.467Z,10.63
2019-03-09T15:11:53.300Z,7.50
2019-03-09T15:14:56.894Z,9.83
2019-03-09T15:18:00.480Z,6.63
2019-03-09T15:21:04.088Z,9.47
2019-03-09T15:24:07.691Z,8.83
2019-03-09T15:27:11.522Z,8.13
2019-03-09T15:30:15.761Z,8.13
2019-03-09T15:33:21.521Z,11.40
2019-03-09T15:36:24.723Z,11.57
2019-03-09T15:39:28.743Z,21.47
2019-03-09T15:42:32.335Z,14.13
2019-03-09T15:45:35.993Z,12.60
2019-03-09T15:48:39.621Z,15.37
2019-03-09T15:51:43.548Z,13.87
2019-03-09T15:54:47.145Z,12.27
2019-03-09T15:57:51.045Z,15.53
2019-03-09T16:00:54.618Z,26.33
2019-03-09T16:03:58.577Z,16.63
2019-03-09T16:07:06.507Z,11.07
2019-03-09T16:10:11.467Z,12.77
2019-03-09T16:13:15.097Z,13.47
2019-03-09T16:16:18.685Z,12.43
2019-03-09T16:19:22.298Z,13.73
2019-03-09T16:22:25.884Z,11.63
2019-03-09T16:25:29.480Z,10.60
2019-03-09T16:28:33.096Z,8.90
2019-03-09T16:31:36.691Z,15.90
2019-03-09T16:34:40.575Z,10.87
2019-03-09T16:37:44.384Z,34.33
2019-03-09T16:40:48.064Z,17.17
2019-03-09T16:43:52.003Z,15.97
2019-03-09T16:46:56.003Z,24.40
2019-03-09T16:49:59.609Z,17.37
2019-03-09T16:53:03.273Z,18.67
2019-03-09T16:56:07.172Z,16.60
2019-03-09T16:59:10.770Z,16.60
2019-03-09T17:02:14.357Z,17.67
2019-03-09T17:05:18.069Z,16.20
2019-03-09T17:08:21.648Z,13.23
2019-03-09T17:11:25.239Z,11.47
2019-03-09T17:14:28.846Z,13.27
2019-03-09T17:17:32.909Z,14.33
2019-03-09T17:20:36.753Z,13.43
2019-03-09T17:23:40.443Z,9.77
2019-03-09T17:26:44.080Z,13.70
2019-03-09T17:29:48.703Z,14.20
2019-03-09T17:32:52.567Z,12.20
2019-03-09T17:35:56.536Z,16.47
2019-03-09T17:39:00.752Z,13.57
2019-03-09T17:42:04.445Z,12.90
2019-03-09T17:45:11.526Z,11.77
2019-03-09T17:48:15.556Z,17.87
2019-03-09T17:51:19.677Z,11.60
2019-03-09T17:54:23.304Z,19.53
2019-03-09T17:57:26.899Z,18.23
2019-03-09T18:00:41.855Z,15.23
2019-03-09T18:03:37.146Z,13.13
2019-03-09T18:06:40.732Z,13.63
2019-03-09T18:09:44.384Z,14.67
2019-03-09T18:12:47.969Z,15.70
2019-03-09T18:15:51.615Z,10.30
2019-03-09T18:18:55.216Z,12.70
2019-03-09T18:21:59.190Z,8.50
2019-03-09T18:25:03.119Z,10.57
2019-03-09T18:28:06.784Z,10.73
2019-03-09T18:31:10.624Z,12.80
2019-03-09T18:34:15.549Z,12.30
2019-03-09T18:37:19.685Z,23.57
2019-03-09T18:40:23.279Z,16.37
2019-03-09T18:43:27.195Z,15.00
2019-03-09T18:46:30.823Z,12.57
2019-03-09T18:49:34.491Z,13.07
2019-03-09T18:52:38.141Z,12.90
2019-03-09T18:55:41.781Z,13.67
2019-03-09T18:58:45.932Z,12.90
2019-03-09T19:01:49.836Z,9.97
2019-03-09T19:04:53.840Z,12.23
2019-03-09T19:07:57.507Z,9.30
2019-03-09T19:11:01.371Z,8.20
2019-03-09T19:14:05.214Z,8.67
2019-03-09T19:17:09.021Z,8.77
2019-03-09T19:20:13.392Z,13.60
2019-03-09T19:23:17.087Z,20.17
2019-03-09T19:26:20.677Z,10.87
2019-03-09T19:29:24.306Z,14.30
2019-03-09T19:32:28.016Z,14.50
2019-03-09T19:35:31.680Z,14.20
2019-03-09T19:38:35.701Z,14.47
2019-03-09T19:41:39.392Z,17.43
2019-03-09T19:44:43.340Z,13.33
2019-03-09T19:47:47.011Z,15.53
2019-03-09T19:50:50.911Z,11.77
2019-03-09T19:53:54.502Z,11.90
2019-03-09T19:56:58.184Z,11.53
2019-03-09T20:00:01.772Z,14.57
2019-03-09T20:03:05.368Z,11.93
2019-03-09T20:06:09.326Z,15.57
2019-03-09T20:09:13.594Z,11.93
2019-03-09T20:12:17.533Z,13.63
2019-03-09T20:15:21.421Z,9.27
2019-03-09T20:18:25.298Z,12.93
2019-03-09T20:21:29.028Z,14.40
2019-03-09T20:24:32.640Z,10.43
2019-03-09T20:27:36.549Z,9.70
2019-03-09T20:30:40.496Z,11.43
2019-03-09T20:33:44.788Z,12.37
2019-03-09T20:36:48.746Z,14.33
2019-03-09T20:39:52.345Z,9.83
2019-03-09T20:42:56.344Z,14.57
2019-03-09T20:46:00.061Z,9.17
2019-03-09T20:49:03.665Z,10.03
2019-03-09T20:52:07.566Z,9.83
2019-03-09T20:55:11.369Z,9.63
2019-03-09T20:58:15.106Z,10.70
2019-03-09T21:01:18.715Z,10.27
2019-03-09T21:04:22.553Z,12.47
2019-03-09T21:07:26.146Z,9.30
2019-03-09T21:10:30.156Z,6.43
2019-03-09T21:13:33.742Z,8.60
2019-03-09T21:16:37.416Z,8.80
2019-03-09T21:19:41.329Z,8.63
2019-03-09T21:22:44.976Z,10.30
2019-03-09T21:25:48.639Z,11.87
2019-03-09T21:28:52.222Z,10.80
2019-03-09T21:31:56.171Z,14.43
2019-03-09T21:34:59.844Z,14.93
2019-03-09T21:38:03.482Z,13.37
2019-03-09T21:41:07.190Z,12.90
2019-03-09T21:44:10.827Z,9.67
2019-03-09T21:47:14.420Z,10.73
2019-03-09T21:50:18.255Z,11.00
2019-03-09T21:53:21.899Z,16.20
2019-03-09T21:56:25.488Z,10.27
2019-03-09T21:59:29.439Z,8.50
2019-03-09T22:02:33.029Z,15.07
2019-03-09T22:05:36.727Z,12.77
2019-03-09T22:08:40.656Z,11.83
2019-03-09T22:11:44.341Z,7.97
2019-03-09T22:14:48.370Z,11.73
2019-03-09T22:17:52.296Z,10.57
2019-03-09T22:20:55.889Z,10.33
2019-03-09T22:23:59.492Z,8.83
2019-03-09T22:27:03.490Z,7.73
2019-03-09T22:30:08.568Z,8.87
2019-03-09T22:33:12.408Z,7.07
2019-03-09T22:36:16.281Z,10.03
2019-03-09T22:39:20.337Z,12.93
2019-03-09T22:42:24.183Z,9.60
2019-03-09T22:45:27.931Z,12.43
2019-03-09T22:48:31.586Z,7.70
2019-03-09T22:51:35.183Z,12.03
2019-03-09T22:54:38.808Z,10.10
2019-03-09T22:57:42.521Z,11.10
2019-03-09T23:00:46.188Z,11.07
2019-03-09T23:03:49.800Z,10.80
2019-03-09T23:06:53.463Z,8.40
2019-03-09T23:09:57.145Z,12.87
2019-03-09T23:13:00.817Z,9.33
2019-03-09T23:16:04.490Z,7.57
2019-03-09T23:19:08.392Z,41.30
2019-03-09T23:22:11.993Z,17.67
2019-03-09T23:25:16.031Z,11.30
2019-03-09T23:28:19.633Z,8.50
2019-03-09T23:31:23.216Z,15.47
2019-03-09T23:34:27.110Z,21.40
2019-03-09T23:37:30.694Z,12.57
2019-03-09T23:40:34.381Z,12.13
2019-03-09T23:43:38.333Z,12.17
2019-03-09T23:46:41.956Z,15.90
2019-03-09T23:49:45.922Z,13.03
2019-03-09T23:52:50.173Z,12.00
2019-03-09T23:55:53.919Z,9.93
2019-03-09T23:58:57.813Z,14.17
